Time;durP1;ratioP1;P1;durP2;ratioP2;P2;SDS_P1;SDS_P2;PMS_P1;PMS_P2;Temp;Humidity;BMP_temperature;BMP_pressure;BME280_temperature;BME280_humidity;BME280_pressure;Samples;Min_cycle;Max_cycle;Signal;HPM_P1;HPM_P2
2024/01/13 00:01:22;;;;;;;68.50;27.83;;;;;;;;;;4829021;29;20061;-65
2024/01/13 00:03:49;;;;;;;66.20;29.52;;;;;;;;;;4845602;29;20053;-65
2024/01/13 00:06:17;;;;;;;59.95;28.38;;;;;;;;;;4828924;29;20084;-65
2024/01/13 00:08:48;;;;;;;59.55;27.33;;;;;;;;;;4845359;29;20445;-65
2024/01/13 00:11:16;;;;;;;60.38;28.35;;;;;;;;;;4845632;29;20053;-65
2024/01/13 00:13:43;;;;;;;64.65;29.10;;;;;;;;;;4845215;29;20053;-65
2024/01/13 00:16:11;;;;;;;65.53;29.58;;;;;;;;;;4845138;29;20052;-65
2024/01/13 00:18:39;;;;;;;60.63;29.75;;;;;;;;;;4829245;29;20061;-65
2024/01/13 00:21:08;;;;;;;57.63;27.67;;;;;;;;;;4844947;29;20480;-65
2024/01/13 00:23:37;;;;;;;61.83;28.60;;;;;;;;;;4844975;29;20133;-65
2024/01/13 00:26:05;;;;;;;67.95;31.40;;;;;;;;;;4845102;29;20057;-65
2024/01/13 00:28:32;;;;;;;67.05;31.27;;;;;;;;;;4846165;29;20049;-66
2024/01/13 00:31:07;;;;;;;73.28;33.60;;;;;;;;;;4846968;29;20400;-65
2024/01/13 00:33:35;;;;;;;70.45;32.95;;;;;;;;;;4828491;29;20061;-65
2024/01/13 00:36:04;;;;;;;75.38;34.10;;;;;;;;;;4845259;29;20053;-65
2024/01/13 00:38:32;;;;;;;76.05;33.72;;;;;;;;;;4845107;29;20073;-65
2024/01/13 00:41:06;;;;;;;76.93;33.42;;;;;;;;;;4844843;29;20050;-66
2024/01/13 00:43:35;;;;;;;70.97;31.80;;;;;;;;;;4828408;29;20046;-66
2024/01/13 00:46:03;;;;;;;68.55;31.95;;;;;;;;;;4844778;29;20079;-66
2024/01/13 00:48:31;;;;;;;72.18;32.72;;;;;;;;;;4844898;29;20499;-65
2024/01/13 00:51:09;;;;;;;73.63;32.90;;;;;;;;;;4844508;29;20046;-65
2024/01/13 00:53:37;;;;;;;63.47;30.65;;;;;;;;;;4844556;29;20041;-65
2024/01/13 00:56:06;;;;;;;67.35;29.77;;;;;;;;;;4844847;29;20077;-65
2024/01/13 00:58:35;;;;;;;63.50;28.17;;;;;;;;;;4844372;29;20045;-65
2024/01/13 01:01:12;;;;;;;64.28;27.92;;;;;;;;;;4844335;29;20062;-65
2024/01/13 01:03:42;;;;;;;55.65;25.50;;;;;;;;;;4844472;29;20049;-65
2024/01/13 01:06:10;;;;;;;61.92;26.73;;;;;;;;;;4843350;29;20050;-65
2024/01/13 01:08:38;;;;;;;59.20;25.83;;;;;;;;;;4844391;29;20081;-66
2024/01/13 01:11:11;;;;;;;58.28;26.05;;;;;;;;;;4829422;29;20054;-65
2024/01/13 01:13:39;;;;;;;58.83;24.83;;;;;;;;;;4845345;29;20458;-65
2024/01/13 01:16:07;;;;;;;55.40;24.08;;;;;;;;;;4844537;29;20046;-65
2024/01/13 01:18:35;;;;;;;53.85;23.10;;;;;;;;;;4844299;29;20177;-65
2024/01/13 01:21:13;;;;;;;59.03;23.63;;;;;;;;;;4843854;29;20102;-65
2024/01/13 01:23:43;;;;;;;52.38;23.08;;;;;;;;;;4844055;29;20042;-65
2024/01/13 01:26:10;;;;;;;50.30;22.00;;;;;;;;;;4844065;29;20126;-65
2024/01/13 01:28:38;;;;;;;55.17;23.20;;;;;;;;;;4843910;29;20129;-65
2024/01/13 01:31:06;;;;;;;54.05;23.02;;;;;;;;;;4843891;29;20050;-65
2024/01/13 01:33:35;;;;;;;55.33;23.27;;;;;;;;;;4843798;29;20065;-65
2024/01/13 01:36:04;;;;;;;57.30;23.60;;;;;;;;;;4843920;29;20110;-65
2024/01/13 01:38:32;;;;;;;51.70;22.92;;;;;;;;;;4843718;29;20130;-65
2024/01/13 01:41:10;;;;;;;56.38;24.00;;;;;;;;;;4843713;29;20501;-65
2024/01/13 01:43:38;;;;;;;60.80;22.88;;;;;;;;;;4843698;29;20045;-65
2024/01/13 01:46:07;;;;;;;55.75;22.85;;;;;;;;;;4843744;29;20153;-65
2024/01/13 01:48:36;;;;;;;50.78;23.13;;;;;;;;;;4843716;29;20057;-65
2024/01/13 01:51:10;;;;;;;56.25;24.00;;;;;;;;;;4843595;29;20069;-65
2024/01/13 01:53:39;;;;;;;54.78;22.85;;;;;;;;;;4843681;29;20049;-65
2024/01/13 01:56:09;;;;;;;48.67;21.73;;;;;;;;;;4843816;29;20044;-65
2024/01/13 01:58:37;;;;;;;54.17;22.92;;;;;;;;;;4827012;29;20401;-65
2024/01/13 02:01:06;;;;;;;51.83;21.83;;;;;;;;;;4843452;29;20208;-65
2024/01/13 02:03:34;;;;;;;57.45;22.42;;;;;;;;;;4843384;29;20503;-65
2024/01/13 02:06:02;;;;;;;51.08;21.23;;;;;;;;;;4843248;29;20110;-65
2024/01/13 02:08:30;;;;;;;50.65;21.90;;;;;;;;;;4843353;29;20049;-65
2024/01/13 02:11:10;;;;;;;55.83;23.35;;;;;;;;;;4843165;29;20045;-65
2024/01/13 02:13:41;;;;;;;54.15;22.70;;;;;;;;;;4843244;29;20077;-65
2024/01/13 02:16:09;;;;;;;51.78;21.10;;;;;;;;;;4827005;29;20094;-65
2024/01/13 02:18:37;;;;;;;51.65;21.30;;;;;;;;;;4842827;29;20046;-65
2024/01/13 02:21:09;;;;;;;46.45;20.35;;;;;;;;;;4843012;29;20053;-65
2024/01/13 02:23:38;;;;;;;51.13;21.50;;;;;;;;;;4843065;29;20110;-65
2024/01/13 02:26:06;;;;;;;47.53;20.45;;;;;;;;;;4843005;29;20057;-65
2024/01/13 02:28:34;;;;;;;50.15;20.35;;;;;;;;;;4842972;29;20075;-65
2024/01/13 02:31:14;;;;;;;46.90;20.90;;;;;;;;;;4842933;29;20064;-65
2024/01/13 02:33:43;;;;;;;48.83;20.52;;;;;;;;;;4842799;29;20061;-65
2024/01/13 02:36:11;;;;;;;48.15;20.23;;;;;;;;;;4842832;29;20054;-65
2024/01/13 02:38:39;;;;;;;49.45;20.77;;;;;;;;;;4826250;29;20137;-65
2024/01/13 02:41:07;;;;;;;47.00;20.25;;;;;;;;;;4842804;29;20397;-65
2024/01/13 02:43:38;;;;;;;46.42;20.75;;;;;;;;;;4842709;29;20103;-65
2024/01/13 02:46:05;;;;;;;49.28;20.90;;;;;;;;;;4842939;29;20495;-65
2024/01/13 02:48:40;;;;;;;46.45;18.70;;;;;;;;;;4842772;29;20125;-65
2024/01/13 02:51:14;;;;;;;47.65;19.73;;;;;;;;;;4842573;29;20506;-65
2024/01/13 02:53:43;;;;;;;44.88;18.42;;;;;;;;;;4842454;29;20674;-65
2024/01/13 02:56:11;;;;;;;43.60;19.92;;;;;;;;;;4842567;29;20046;-65
2024/01/13 02:58:38;;;;;;;43.38;18.77;;;;;;;;;;4842525;29;20050;-65
2024/01/13 03:01:16;;;;;;;46.60;19.98;;;;;;;;;;4842209;29;20050;-65
2024/01/13 03:03:49;;;;;;;44.08;18.27;;;;;;;;;;4842404;29;20106;-65
2024/01/13 03:06:20;;;;;;;49.00;20.10;;;;;;;;;;4842310;29;20467;-65
2024/01/13 03:08:48;;;;;;;46.20;19.20;;;;;;;;;;4842357;29;20556;-65
2024/01/13 03:11:16;;;;;;;46.78;19.05;;;;;;;;;;4825738;29;20057;-65
2024/01/13 03:13:44;;;;;;;48.88;18.88;;;;;;;;;;4842115;29;20129;-65
2024/01/13 03:16:12;;;;;;;46.78;19.77;;;;;;;;;;4842148;29;20115;-65
2024/01/13 03:18:40;;;;;;;42.92;18.98;;;;;;;;;;4826412;29;20451;-65
2024/01/13 03:21:11;;;;;;;41.40;18.48;;;;;;;;;;4842065;29;20400;-64
2024/01/13 03:23:42;;;;;;;43.67;18.90;;;;;;;;;;4841938;29;20042;-64
2024/01/13 03:26:11;;;;;;;42.03;20.60;;;;;;;;;;4842105;29;20125;-65
2024/01/13 03:28:38;;;;;;;47.92;19.48;;;;;;;;;;4841544;29;20038;-65
2024/01/13 03:31:10;;;;;;;50.38;20.17;;;;;;;;;;4841904;29;20559;-65
2024/01/13 03:33:40;;;;;;;42.38;19.30;;;;;;;;;;4841829;29;20062;-65
2024/01/13 03:36:09;;;;;;;45.15;18.98;;;;;;;;;;4842150;29;20056;-65
2024/01/13 03:38:38;;;;;;;43.97;18.23;;;;;;;;;;4841916;29;20053;-65
2024/01/13 03:41:11;;;;;;;46.38;19.50;;;;;;;;;;4842069;29;20054;-65
2024/01/13 03:43:39;;;;;;;42.45;18.27;;;;;;;;;;4841759;29;20049;-65
2024/01/13 03:46:06;;;;;;;43.40;19.52;;;;;;;;;;4842081;29;20052;-65
2024/01/13 03:48:34;;;;;;;50.08;20.20;;;;;;;;;;4825516;29;20110;-65
2024/01/13 03:51:02;;;;;;;49.50;18.50;;;;;;;;;;4841793;29;20504;-65
2024/01/13 03:53:35;;;;;;;49.58;20.48;;;;;;;;;;4841933;29;20046;-65
2024/01/13 03:56:05;;;;;;;48.58;19.85;;;;;;;;;;4845047;29;20046;-65
2024/01/13 03:58:34;;;;;;;41.85;17.92;;;;;;;;;;4843440;29;20053;-65
2024/01/13 04:01:02;;;;;;;45.33;19.42;;;;;;;;;;4841705;29;20046;-65
2024/01/13 04:03:30;;;;;;;44.67;18.02;;;;;;;;;;4825739;29;20098;-64
2024/01/13 04:05:58;;;;;;;43.63;19.30;;;;;;;;;;4841665;29;20060;-65
2024/01/13 04:08:26;;;;;;;44.92;18.88;;;;;;;;;;4841775;29;20057;-65
2024/01/13 04:10:54;;;;;;;44.42;18.83;;;;;;;;;;4841641;29;20534;-65
2024/01/13 04:13:21;;;;;;;43.25;19.50;;;;;;;;;;4841743;29;20404;-65
2024/01/13 04:15:49;;;;;;;44.53;19.00;;;;;;;;;;4841601;29;20050;-65
2024/01/13 04:18:17;;;;;;;45.47;18.50;;;;;;;;;;4841412;29;20042;-64
2024/01/13 04:20:44;;;;;;;44.88;18.00;;;;;;;;;;4840943;29;20484;-65
2024/01/13 04:23:14;;;;;;;45.25;19.45;;;;;;;;;;4841347;29;20042;-64
2024/01/13 04:25:42;;;;;;;48.47;19.52;;;;;;;;;;4841293;29;20042;-65
2024/01/13 04:28:09;;;;;;;47.35;20.10;;;;;;;;;;4841236;29;20042;-65
2024/01/13 04:30:37;;;;;;;44.97;19.27;;;;;;;;;;4841718;29;20087;-65
2024/01/13 04:33:05;;;;;;;46.25;20.27;;;;;;;;;;4841237;29;20054;-65
2024/01/13 04:35:32;;;;;;;46.25;18.65;;;;;;;;;;4841270;29;20080;-64
2024/01/13 04:38:00;;;;;;;47.47;19.58;;;;;;;;;;4841339;29;20102;-65
2024/01/13 04:40:29;;;;;;;41.40;18.63;;;;;;;;;;4841949;29;20454;-66
2024/01/13 04:42:57;;;;;;;43.33;18.38;;;;;;;;;;4844785;29;20056;-66
2024/01/13 04:45:25;;;;;;;44.88;19.05;;;;;;;;;;4844749;29;20052;-65
2024/01/13 04:47:52;;;;;;;41.67;18.30;;;;;;;;;;4844611;29;20050;-66
2024/01/13 04:50:20;;;;;;;47.50;18.63;;;;;;;;;;4828100;29;20385;-65
2024/01/13 04:52:47;;;;;;;43.45;17.70;;;;;;;;;;4828036;29;20046;-67
2024/01/13 04:55:15;;;;;;;41.15;18.00;;;;;;;;;;4844484;29;20052;-66
2024/01/13 04:57:42;;;;;;;41.33;17.88;;;;;;;;;;4844628;29;20102;-67
2024/01/13 05:00:10;;;;;;;44.22;17.98;;;;;;;;;;4846632;29;20073;-66
2024/01/13 05:02:38;;;;;;;43.58;17.98;;;;;;;;;;4846340;29;20495;-66
2024/01/13 05:05:15;;;;;;;40.70;18.05;;;;;;;;;;4862719;29;20114;-66
2024/01/13 05:07:43;;;;;;;44.67;18.70;;;;;;;;;;4863390;29;20098;-66
2024/01/13 05:10:12;;;;;;;44.63;18.05;;;;;;;;;;4862700;29;20480;-66
2024/01/13 05:12:39;;;;;;;44.95;18.85;;;;;;;;;;4846233;29;20049;-66
2024/01/13 05:15:07;;;;;;;38.97;17.17;;;;;;;;;;4862814;29;20033;-67
2024/01/13 05:17:35;;;;;;;45.00;19.33;;;;;;;;;;4862732;29;20045;-67
2024/01/13 05:20:04;;;;;;;42.38;18.30;;;;;;;;;;4862543;29;20045;-67
2024/01/13 05:22:32;;;;;;;43.53;18.27;;;;;;;;;;4836419;29;20054;-67
2024/01/13 05:25:00;;;;;;;49.72;20.02;;;;;;;;;;4851114;29;20046;-67
2024/01/13 05:27:28;;;;;;;44.28;18.60;;;;;;;;;;4844142;29;20075;-66
2024/01/13 05:29:55;;;;;;;47.40;18.73;;;;;;;;;;4844058;29;20561;-66
2024/01/13 05:32:23;;;;;;;41.90;17.70;;;;;;;;;;4843755;29;20062;-66
2024/01/13 05:34:51;;;;;;;49.20;19.20;;;;;;;;;;4843933;29;20050;-66
2024/01/13 05:37:18;;;;;;;51.78;19.88;;;;;;;;;;4858149;29;20446;-67
2024/01/13 05:39:46;;;;;;;50.63;20.30;;;;;;;;;;4843789;29;20049;-66
2024/01/13 05:42:13;;;;;;;53.30;21.50;;;;;;;;;;4843729;29;20086;-67
2024/01/13 05:44:41;;;;;;;50.90;20.65;;;;;;;;;;4843914;29;20046;-67
